Time,TemperatureF,DewpointF,PressureIn,WindDirection,WindDirectionDegrees,WindSpeedMPH,WindSpeedGustMPH,Humidity,HourlyPrecipIn,Conditions,Clouds,dailyrainin,SoftwareType,DateUTC
2013-01-28 00:03:00,54.1,50.3,29.91,North,0,0.0,0.0,87,0.00,,,0.00,WUHU21623XXSP,2013-01-28 06:03:00,
2013-01-28 00:08:00,54.1,50.3,29.91,North,0,0.0,0.0,87,0.00,,,0.00,WUHU21623XXSP,2013-01-28 06:08:00,
2013-01-28 00:13:00,54.1,50.3,29.91,North,0,0.0,0.0,87,0.00,,,0.00,WUHU21623XXSP,2013-01-28 06:13:00,
2013-01-28 00:18:00,54.1,50.3,29.91,North,0,0.0,0.0,87,0.00,,,0.00,WUHU21623XXSP,2013-01-28 06:18:00,
2013-01-28 00:23:00,54.3,50.5,29.91,North,0,0.0,0.0,87,0.00,,,0.00,WUHU21623XXSP,2013-01-28 06:23:00,
2013-01-28 00:28:00,54.3,50.5,29.91,North,0,0.0,0.0,87,0.00,,,0.00,WUHU21623XXSP,2013-01-28 06:28:00,
2013-01-28 00:33:00,54.3,50.5,29.91,North,0,0.0,0.0,87,0.00,,,0.00,WUHU21623XXSP,2013-01-28 06:33:00,
2013-01-28 00:38:00,54.3,50.5,29.91,North,0,0.0,0.0,87,0.00,,,0.00,WUHU21623XXSP,2013-01-28 06:38:00,
2013-01-28 00:43:00,54.3,50.5,29.91,North,0,0.0,0.0,87,0.00,,,0.00,WUHU21623XXSP,2013-01-28 06:43:00,
2013-01-28 00:48:00,54.3,50.5,29.91,North,0,0.0,0.0,87,0.00,,,0.00,WUHU21623XXSP,2013-01-28 06:48:00,
2013-01-28 00:53:00,54.3,50.5,29.91,North,0,0.0,0.0,87,0.00,,,0.00,WUHU21623XXSP,2013-01-28 06:53:00,
2013-01-28 00:58:00,54.3,50.5,29.91,North,0,0.0,0.0,87,0.00,,,0.00,WUHU21623XXSP,2013-01-28 06:58:00,
2013-01-28 01:03:00,54.5,50.7,29.91,North,0,0.0,0.0,87,0.00,,,0.00,WUHU21623XXSP,2013-01-28 07:03:00,
2013-01-28 01:08:00,54.5,50.7,29.91,North,0,0.0,0.0,87,0.00,,,0.00,WUHU21623XXSP,2013-01-28 07:08:00,
2013-01-28 01:13:00,54.5,50.7,29.91,North,0,0.0,0.0,87,0.00,,,0.00,WUHU21623XXSP,2013-01-28 07:13:00,
2013-01-28 01:18:00,54.5,50.7,29.91,North,0,0.0,0.0,87,0.00,,,0.00,WUHU21623XXSP,2013-01-28 07:18:00,
2013-01-28 01:23:00,54.5,50.7,29.91,North,0,0.0,0.0,87,0.00,,,0.00,WUHU21623XXSP,2013-01-28 07:23:00,
2013-01-28 01:28:00,54.5,50.7,29.91,North,0,0.0,0.0,87,0.00,,,0.00,WUHU21623XXSP,2013-01-28 07:28:00,
2013-01-28 01:33:00,54.5,50.7,29.91,North,0,0.0,0.0,87,0.00,,,0.00,WUHU21623XXSP,2013-01-28 07:33:00,
2013-01-28 01:38:00,54.5,50.7,29.91,North,0,0.0,0.0,87,0.00,,,0.00,WUHU21623XXSP,2013-01-28 07:38:00,
2013-01-28 01:43:00,54.5,50.7,29.91,North,0,0.0,0.0,87,0.00,,,0.00,WUHU21623XXSP,2013-01-28 07:43:00,
2013-01-28 01:48:00,54.5,50.7,29.91,North,0,0.0,0.0,87,0.00,,,0.00,WUHU21623XXSP,2013-01-28 07:48:00,
2013-01-28 01:53:00,54.5,50.7,29.91,North,0,0.0,0.0,87,0.00,,,0.00,WUHU21623XXSP,2013-01-28 07:53:00,
2013-01-28 01:58:00,54.5,50.7,29.91,North,0,0.0,0.0,87,0.00,,,0.00,WUHU21623XXSP,2013-01-28 07:58:00,
2013-01-28 02:03:00,54.5,50.7,29.91,North,0,0.0,0.0,87,0.00,,,0.00,WUHU21623XXSP,2013-01-28 08:03:00,
2013-01-28 02:08:00,54.5,50.7,29.91,North,0,0.0,0.0,87,0.00,,,0.00,WUHU21623XXSP,2013-01-28 08:08:00,
2013-01-28 02:13:00,54.5,50.7,29.91,North,0,0.0,0.0,87,0.00,,,0.00,WUHU21623XXSP,2013-01-28 08:13:00,
2013-01-28 02:18:00,54.5,50.7,29.91,North,0,0.0,0.0,87,0.00,,,0.00,WUHU21623XXSP,2013-01-28 08:18:00,
2013-01-28 02:23:00,54.5,50.7,29.91,North,0,0.0,0.0,87,0.00,,,0.00,WUHU21623XXSP,2013-01-28 08:23:00,
2013-01-28 02:28:00,54.5,50.5,29.91,North,0,0.0,0.0,87,0.00,,,0.00,WUHU21623XXSP,2013-01-28 08:28:00,
2013-01-28 02:33:00,54.5,50.7,29.91,North,0,0.0,0.0,87,0.00,,,0.00,WUHU21623XXSP,2013-01-28 08:33:00,
2013-01-28 02:38:00,54.3,50.7,29.91,North,0,0.0,0.0,87,0.00,,,0.00,WUHU21623XXSP,2013-01-28 08:38:00,
2013-01-28 02:44:00,54.5,50.7,29.91,North,0,0.0,0.0,87,0.00,,,0.00,WUHU21623XXSP,2013-01-28 08:44:00,
2013-01-28 02:49:00,54.5,50.7,29.91,North,0,0.0,0.0,87,0.00,,,0.00,WUHU21623XXSP,2013-01-28 08:49:00,
2013-01-28 02:54:00,54.5,50.7,29.91,North,0,0.0,0.0,87,0.00,,,0.00,WUHU21623XXSP,2013-01-28 08:54:00,
2013-01-28 02:59:00,54.7,50.8,29.91,North,0,0.0,0.0,87,0.00,,,0.00,WUHU21623XXSP,2013-01-28 08:59:00,
2013-01-28 03:04:00,54.7,50.8,29.91,North,0,0.0,0.0,87,0.00,,,0.00,WUHU21623XXSP,2013-01-28 09:04:00,
2013-01-28 03:09:00,54.7,50.8,29.90,North,0,0.0,0.0,87,0.00,,,0.00,WUHU21623XXSP,2013-01-28 09:09:00,
2013-01-28 03:14:00,54.7,50.8,29.90,North,0,0.0,0.0,87,0.00,,,0.00,WUHU21623XXSP,2013-01-28 09:14:00,
2013-01-28 03:19:00,54.7,50.8,29.90,North,0,0.0,0.0,87,0.00,,,0.00,WUHU21623XXSP,2013-01-28 09:19:00,
2013-01-28 03:24:00,54.5,50.8,29.90,North,0,0.0,0.0,87,0.00,,,0.00,WUHU21623XXSP,2013-01-28 09:24:00,
2013-01-28 03:29:00,54.5,50.7,29.91,North,0,0.0,0.0,87,0.00,,,0.00,WUHU21623XXSP,2013-01-28 09:29:00,
2013-01-28 03:34:00,54.5,50.7,29.90,North,0,0.0,0.0,87,0.00,,,0.00,WUHU21623XXSP,2013-01-28 09:34:00,
2013-01-28 03:39:00,54.5,50.7,29.90,North,0,0.0,0.0,87,0.00,,,0.00,WUHU21623XXSP,2013-01-28 09:39:00,
2013-01-28 03:44:00,54.3,50.5,29.90,North,0,0.0,0.0,87,0.00,,,0.00,WUHU21623XXSP,2013-01-28 09:44:00,
2013-01-28 03:49:00,54.3,50.5,29.90,North,0,0.0,0.0,87,0.00,,,0.00,WUHU21623XXSP,2013-01-28 09:49:00,
2013-01-28 03:54:00,54.3,50.5,29.90,North,0,0.0,0.0,87,0.00,,,0.00,WUHU21623XXSP,2013-01-28 09:54:00,
2013-01-28 03:59:00,54.3,50.5,29.90,North,0,0.0,0.0,87,0.00,,,0.00,WUHU21623XXSP,2013-01-28 09:59:00,
2013-01-28 04:04:00,54.3,50.3,29.90,North,0,0.0,0.0,87,0.00,,,0.00,WUHU21623XXSP,2013-01-28 10:04:00,
2013-01-28 04:09:00,54.1,50.3,29.90,North,0,0.0,0.0,87,0.00,,,0.00,WUHU21623XXSP,2013-01-28 10:09:00,
2013-01-28 04:14:00,54.1,50.3,29.90,North,0,0.0,0.0,87,0.00,,,0.00,WUHU21623XXSP,2013-01-28 10:14:00,
2013-01-28 04:19:00,54.1,50.3,29.90,North,0,0.0,0.0,87,0.00,,,0.00,WUHU21623XXSP,2013-01-28 10:19:00,
2013-01-28 04:24:00,54.0,50.1,29.90,North,0,0.0,0.0,87,0.00,,,0.00,WUHU21623XXSP,2013-01-28 10:24:00,
2013-01-28 04:29:00,54.0,50.1,29.90,North,0,0.0,0.0,87,0.00,,,0.00,WUHU21623XXSP,2013-01-28 10:29:00,
2013-01-28 04:34:00,54.0,50.1,29.90,North,0,0.0,0.0,87,0.00,,,0.00,WUHU21623XXSP,2013-01-28 10:34:00,
2013-01-28 04:39:00,54.0,50.1,29.91,North,0,0.0,0.0,87,0.00,,,0.00,WUHU21623XXSP,2013-01-28 10:39:00,
2013-01-28 04:44:00,54.0,50.1,29.92,North,0,0.0,0.0,87,0.00,,,0.00,WUHU21623XXSP,2013-01-28 10:44:00,
2013-01-28 04:49:00,54.0,50.1,29.92,North,0,0.0,0.0,87,0.00,,,0.00,WUHU21623XXSP,2013-01-28 10:49:00,
2013-01-28 04:54:00,54.0,50.1,29.92,North,0,0.0,0.0,87,0.00,,,0.00,WUHU21623XXSP,2013-01-28 10:54:00,
2013-01-28 04:59:00,54.0,50.5,29.92,North,0,0.0,0.0,88,0.00,,,0.00,WUHU21623XXSP,2013-01-28 10:59:00,
2013-01-28 05:04:00,54.0,50.5,29.91,North,0,0.0,0.0,88,0.00,,,0.00,WUHU21623XXSP,2013-01-28 11:04:00,
2013-01-28 05:09:00,53.8,50.3,29.91,North,0,0.0,0.0,88,0.00,,,0.00,WUHU21623XXSP,2013-01-28 11:09:00,
2013-01-28 05:14:00,53.6,49.8,29.91,North,0,0.0,0.0,87,0.00,,,0.00,WUHU21623XXSP,2013-01-28 11:14:00,
2013-01-28 05:19:00,53.4,49.6,29.91,North,0,0.0,0.0,87,0.00,,,0.00,WUHU21623XXSP,2013-01-28 11:19:00,
2013-01-28 05:24:00,53.4,49.6,29.91,North,0,0.0,0.0,87,0.00,,,0.00,WUHU21623XXSP,2013-01-28 11:24:00,
2013-01-28 05:29:00,53.2,49.4,29.91,North,0,0.0,0.0,87,0.00,,,0.00,WUHU21623XXSP,2013-01-28 11:29:00,
2013-01-28 05:34:00,53.2,49.4,29.90,North,0,0.0,0.0,87,0.00,,,0.00,WUHU21623XXSP,2013-01-28 11:34:00,
2013-01-28 05:39:00,52.9,49.4,29.91,North,0,0.0,0.0,88,0.00,,,0.00,WUHU21623XXSP,2013-01-28 11:39:00,
2013-01-28 05:44:00,52.9,49.4,29.91,North,0,0.0,0.0,88,0.00,,,0.00,WUHU21623XXSP,2013-01-28 11:44:00,
2013-01-28 05:49:00,52.9,49.4,29.91,North,0,0.0,0.0,88,0.00,,,0.00,WUHU21623XXSP,2013-01-28 11:49:00,
2013-01-28 05:54:00,53.1,49.6,29.91,North,0,0.0,0.0,88,0.00,,,0.00,WUHU21623XXSP,2013-01-28 11:54:00,
2013-01-28 05:59:00,53.2,49.7,29.91,North,0,0.0,0.0,88,0.00,,,0.00,WUHU21623XXSP,2013-01-28 11:59:00,
2013-01-28 06:04:00,53.2,49.7,29.91,North,0,0.0,0.0,88,0.00,,,0.00,WUHU21623XXSP,2013-01-28 12:04:00,
2013-01-28 06:09:00,53.2,49.7,29.91,North,0,0.0,0.0,88,0.00,,,0.00,WUHU21623XXSP,2013-01-28 12:09:00,
2013-01-28 06:14:00,53.2,49.7,29.91,North,0,0.0,0.0,88,0.00,,,0.00,WUHU21623XXSP,2013-01-28 12:14:00,
2013-01-28 06:19:00,53.2,49.7,29.92,North,0,0.0,0.0,88,0.00,,,0.00,WUHU21623XXSP,2013-01-28 12:19:00,
2013-01-28 06:24:00,53.2,49.7,29.92,North,0,0.0,0.0,88,0.00,,,0.00,WUHU21623XXSP,2013-01-28 12:24:00,
2013-01-28 06:29:00,53.2,49.7,29.92,North,0,0.0,0.0,88,0.00,,,0.00,WUHU21623XXSP,2013-01-28 12:29:00,
2013-01-28 06:34:00,53.2,49.7,29.92,North,0,0.0,0.0,88,0.00,,,0.00,WUHU21623XXSP,2013-01-28 12:34:00,
2013-01-28 06:39:00,53.2,50.1,29.92,North,0,0.0,0.0,89,0.00,,,0.00,WUHU21623XXSP,2013-01-28 12:39:00,
2013-01-28 06:44:00,53.2,50.1,29.92,North,0,0.0,0.0,89,0.00,,,0.00,WUHU21623XXSP,2013-01-28 12:44:00,
2013-01-28 06:49:00,53.2,50.1,29.92,North,0,0.0,0.0,89,0.00,,,0.00,WUHU21623XXSP,2013-01-28 12:49:00,
2013-01-28 06:54:00,53.2,49.7,29.92,North,0,0.0,0.0,88,0.00,,,0.00,WUHU21623XXSP,2013-01-28 12:54:00,
2013-01-28 06:59:00,53.2,50.1,29.92,North,0,0.0,0.0,89,0.00,,,0.00,WUHU21623XXSP,2013-01-28 12:59:00,
2013-01-28 07:04:00,53.4,50.2,29.92,North,0,0.0,0.0,89,0.00,,,0.00,WUHU21623XXSP,2013-01-28 13:04:00,
2013-01-28 07:09:00,53.4,50.2,29.92,North,0,0.0,0.0,89,0.00,,,0.00,WUHU21623XXSP,2013-01-28 13:09:00,
2013-01-28 07:14:00,53.4,50.2,29.93,North,0,0.0,0.0,89,0.00,,,0.00,WUHU21623XXSP,2013-01-28 13:14:00,
2013-01-28 07:19:00,53.4,50.2,29.93,North,0,0.0,0.0,89,0.00,,,0.00,WUHU21623XXSP,2013-01-28 13:19:00,
2013-01-28 07:24:00,53.2,50.1,29.92,North,0,0.0,0.0,89,0.00,,,0.00,WUHU21623XXSP,2013-01-28 13:24:00,
2013-01-28 07:29:00,53.2,50.1,29.93,North,0,0.0,0.0,89,0.00,,,0.00,WUHU21623XXSP,2013-01-28 13:29:00,
2013-01-28 07:34:00,53.2,50.1,29.93,North,0,0.0,0.0,89,0.00,,,0.00,WUHU21623XXSP,2013-01-28 13:34:00,
2013-01-28 07:39:00,53.4,50.2,29.93,North,0,0.0,0.0,89,0.00,,,0.00,WUHU21623XXSP,2013-01-28 13:39:00,
2013-01-28 07:44:00,53.4,50.2,29.93,North,0,0.0,0.0,89,0.00,,,0.00,WUHU21623XXSP,2013-01-28 13:44:00,
2013-01-28 07:49:00,53.4,50.2,29.93,North,0,0.0,0.0,89,0.00,,,0.00,WUHU21623XXSP,2013-01-28 13:49:00,
2013-01-28 07:54:00,53.4,50.2,29.93,North,0,0.0,0.0,89,0.00,,,0.00,WUHU21623XXSP,2013-01-28 13:54:00,
2013-01-28 07:59:00,53.4,50.2,29.93,North,0,0.0,0.0,89,0.00,,,0.00,WUHU21623XXSP,2013-01-28 13:59:00,
2013-01-28 08:04:00,53.4,50.2,29.93,North,0,0.0,0.0,89,0.00,,,0.00,WUHU21623XXSP,2013-01-28 14:04:00,
2013-01-28 08:09:00,53.4,50.2,29.93,North,0,0.0,0.0,89,0.00,,,0.00,WUHU21623XXSP,2013-01-28 14:09:00,
2013-01-28 08:14:00,53.8,50.4,29.94,North,0,0.0,0.0,89,0.00,,,0.00,WUHU21623XXSP,2013-01-28 14:14:00,
2013-01-28 08:19:00,53.8,50.6,29.94,North,0,0.0,0.0,89,0.00,,,0.00,WUHU21623XXSP,2013-01-28 14:19:00,
2013-01-28 08:24:00,53.8,50.6,29.94,North,0,0.0,0.0,89,0.00,,,0.00,WUHU21623XXSP,2013-01-28 14:24:00,
2013-01-28 08:29:00,54.0,50.8,29.94,North,0,0.0,0.0,89,0.00,,,0.00,WUHU21623XXSP,2013-01-28 14:29:00,
2013-01-28 08:34:00,54.0,50.8,29.94,North,0,0.0,0.0,89,0.00,,,0.00,WUHU21623XXSP,2013-01-28 14:34:00,
2013-01-28 08:39:00,54.3,51.1,29.93,North,0,0.0,0.0,89,0.00,,,0.00,WUHU21623XXSP,2013-01-28 14:39:00,
2013-01-28 08:44:00,54.3,51.1,29.93,North,0,0.0,0.0,89,0.00,,,0.00,WUHU21623XXSP,2013-01-28 14:44:00,
2013-01-28 08:49:00,54.5,51.3,29.93,North,0,0.0,0.0,89,0.00,,,0.00,WUHU21623XXSP,2013-01-28 14:49:00,
2013-01-28 08:54:00,54.7,51.5,29.93,North,0,0.0,0.0,89,0.00,,,0.00,WUHU21623XXSP,2013-01-28 14:54:00,
2013-01-28 08:59:00,55.0,52.2,29.94,North,0,0.0,0.0,90,0.00,,,0.00,WUHU21623XXSP,2013-01-28 14:59:00,
2013-01-28 09:05:00,55.2,52.3,29.94,North,0,0.0,0.0,90,0.00,,,0.00,WUHU21623XXSP,2013-01-28 15:05:00,
2013-01-28 09:10:00,55.6,52.7,29.94,North,0,0.0,0.0,90,0.00,,,0.00,WUHU21623XXSP,2013-01-28 15:10:00,
2013-01-28 09:15:00,55.8,52.6,29.93,North,0,0.0,0.0,89,0.00,,,0.00,WUHU21623XXSP,2013-01-28 15:15:00,
2013-01-28 09:20:00,55.9,52.7,29.93,North,0,0.0,0.0,89,0.00,,,0.00,WUHU21623XXSP,2013-01-28 15:20:00,
2013-01-28 09:25:00,56.3,53.1,29.94,North,0,0.0,0.0,89,0.00,,,0.00,WUHU21623XXSP,2013-01-28 15:25:00,
2013-01-28 09:30:00,56.5,53.6,29.94,North,0,0.0,0.0,90,0.00,,,0.00,WUHU21623XXSP,2013-01-28 15:30:00,
2013-01-28 09:35:00,56.5,53.6,29.93,North,0,0.0,0.0,90,0.00,,,0.00,WUHU21623XXSP,2013-01-28 15:35:00,
2013-01-28 09:40:00,57.0,53.8,29.93,North,0,0.0,0.0,89,0.00,,,0.00,WUHU21623XXSP,2013-01-28 15:40:00,
2013-01-28 09:45:00,57.0,53.8,29.94,North,0,0.0,0.0,89,0.00,,,0.00,WUHU21623XXSP,2013-01-28 15:45:00,
2013-01-28 09:50:00,57.6,54.2,29.93,North,0,0.0,0.0,89,0.00,,,0.00,WUHU21623XXSP,2013-01-28 15:50:00,
2013-01-28 09:55:00,58.1,54.7,29.93,North,0,0.0,0.0,89,0.00,,,0.00,WUHU21623XXSP,2013-01-28 15:55:00,
2013-01-28 10:00:00,58.8,55.3,29.93,North,0,0.0,0.0,89,0.00,,,0.00,WUHU21623XXSP,2013-01-28 16:00:00,
2013-01-28 10:05:00,58.8,55.9,29.94,North,0,0.0,0.0,89,0.00,,,0.00,WUHU21623XXSP,2013-01-28 16:05:00,
2013-01-28 10:10:00,59.5,56.0,29.94,North,0,0.0,0.0,89,0.00,,,0.00,WUHU21623XXSP,2013-01-28 16:10:00,
2013-01-28 10:15:00,59.7,56.0,29.94,North,0,0.0,0.0,89,0.00,,,0.00,WUHU21623XXSP,2013-01-28 16:15:00,
2013-01-28 10:20:00,60.1,56.6,29.94,North,0,0.0,0.0,88,0.00,,,0.00,WUHU21623XXSP,2013-01-28 16:20:00,
2013-01-28 10:25:00,60.6,56.6,29.94,North,0,0.0,0.0,88,0.00,,,0.00,WUHU21623XXSP,2013-01-28 16:25:00,
2013-01-28 10:30:00,61.0,57.3,29.94,North,0,0.0,0.0,87,0.00,,,0.00,WUHU21623XXSP,2013-01-28 16:30:00,
2013-01-28 10:35:00,61.5,57.3,29.93,North,0,0.0,0.0,86,0.00,,,0.00,WUHU21623XXSP,2013-01-28 16:35:00,
2013-01-28 10:40:00,62.1,57.8,29.94,North,0,0.0,0.0,86,0.00,,,0.00,WUHU21623XXSP,2013-01-28 16:40:00,
2013-01-28 10:45:00,62.4,58.0,29.93,North,0,0.0,0.0,86,0.00,,,0.00,WUHU21623XXSP,2013-01-28 16:45:00,
2013-01-28 10:50:00,63.0,58.7,29.93,North,0,0.0,0.0,86,0.00,,,0.00,WUHU21623XXSP,2013-01-28 16:50:00,
2013-01-28 10:55:00,63.3,58.4,29.93,North,0,0.0,0.0,84,0.00,,,0.00,WUHU21623XXSP,2013-01-28 16:55:00,
2013-01-28 11:00:00,64.0,58.7,29.93,North,0,0.0,0.0,84,0.00,,,0.00,WUHU21623XXSP,2013-01-28 17:00:00,
2013-01-28 11:05:00,64.6,59.3,29.93,North,0,0.0,0.0,83,0.00,,,0.00,WUHU21623XXSP,2013-01-28 17:05:00,
2013-01-28 11:10:00,64.9,59.6,29.92,North,0,0.0,0.0,83,0.00,,,0.00,WUHU21623XXSP,2013-01-28 17:10:00,
2013-01-28 11:15:00,65.5,59.8,29.93,North,0,0.0,0.0,82,0.00,,,0.00,WUHU21623XXSP,2013-01-28 17:15:00,
2013-01-28 11:20:00,65.8,59.7,29.92,North,0,0.0,0.0,81,0.00,,,0.00,WUHU21623XXSP,2013-01-28 17:20:00,
2013-01-28 11:25:00,65.8,59.5,29.92,North,0,0.0,0.0,80,0.00,,,0.00,WUHU21623XXSP,2013-01-28 17:25:00,
2013-01-28 11:30:00,66.0,59.7,29.92,North,0,0.0,0.0,80,0.00,,,0.00,WUHU21623XXSP,2013-01-28 17:30:00,
2013-01-28 11:35:00,66.0,59.7,29.92,North,0,0.0,0.0,80,0.00,,,0.00,WUHU21623XXSP,2013-01-28 17:35:00,
2013-01-28 11:40:00,66.2,59.9,29.92,North,0,0.0,0.0,80,0.00,,,0.00,WUHU21623XXSP,2013-01-28 17:40:00,
2013-01-28 11:45:00,66.4,59.5,29.92,North,0,0.0,0.0,79,0.00,,,0.00,WUHU21623XXSP,2013-01-28 17:45:00,
2013-01-28 11:50:00,66.6,59.9,29.91,North,0,0.0,0.0,79,0.00,,,0.00,WUHU21623XXSP,2013-01-28 17:50:00,
2013-01-28 11:55:00,66.7,60.1,29.91,North,0,0.0,0.0,79,0.00,,,0.00,WUHU21623XXSP,2013-01-28 17:55:00,
2013-01-28 12:00:00,67.1,59.9,29.91,North,0,0.0,0.0,78,0.00,,,0.00,WUHU21623XXSP,2013-01-28 18:00:00,
2013-01-28 12:05:00,67.8,60.8,29.90,North,0,0.0,0.0,78,0.00,,,0.00,WUHU21623XXSP,2013-01-28 18:05:00,
2013-01-28 12:10:00,68.5,61.1,29.90,North,0,0.0,0.0,77,0.00,,,0.00,WUHU21623XXSP,2013-01-28 18:10:00,
2013-01-28 12:15:00,68.7,60.8,29.90,North,0,0.0,0.0,76,0.00,,,0.00,WUHU21623XXSP,2013-01-28 18:15:00,
2013-01-28 12:20:00,69.3,60.9,29.90,North,0,0.0,0.0,75,0.00,,,0.00,WUHU21623XXSP,2013-01-28 18:20:00,
2013-01-28 12:25:00,69.4,60.9,29.89,North,0,0.0,0.0,75,0.00,,,0.00,WUHU21623XXSP,2013-01-28 18:25:00,
2013-01-28 12:30:00,69.4,60.7,29.89,North,0,0.0,0.0,74,0.00,,,0.00,WUHU21623XXSP,2013-01-28 18:30:00,
2013-01-28 12:35:00,69.6,60.7,29.89,North,0,0.0,0.0,74,0.00,,,0.00,WUHU21623XXSP,2013-01-28 18:35:00,
2013-01-28 12:40:00,69.8,60.9,29.89,North,0,0.0,0.0,74,0.00,,,0.00,WUHU21623XXSP,2013-01-28 18:40:00,
2013-01-28 12:45:00,70.0,61.2,29.88,North,0,0.0,0.0,74,0.00,,,0.00,WUHU21623XXSP,2013-01-28 18:45:00,
2013-01-28 12:50:00,70.3,61.2,29.88,North,0,0.0,0.0,73,0.00,,,0.00,WUHU21623XXSP,2013-01-28 18:50:00,
2013-01-28 12:55:00,70.5,61.2,29.87,North,0,0.0,0.0,73,0.00,,,0.00,WUHU21623XXSP,2013-01-28 18:55:00,
2013-01-28 13:00:00,71.1,61.4,29.87,North,0,0.0,0.0,72,0.00,,,0.00,WUHU21623XXSP,2013-01-28 19:00:00,
2013-01-28 13:05:00,71.4,61.5,29.87,North,0,0.0,0.0,71,0.00,,,0.00,WUHU21623XXSP,2013-01-28 19:05:00,
2013-01-28 13:10:00,71.4,61.5,29.87,North,0,0.0,0.0,71,0.00,,,0.00,WUHU21623XXSP,2013-01-28 19:10:00,
2013-01-28 13:15:00,71.4,61.5,29.87,North,0,0.0,0.0,71,0.00,,,0.00,WUHU21623XXSP,2013-01-28 19:15:00,
2013-01-28 13:20:00,72.0,61.7,29.86,North,0,0.0,0.0,70,0.00,,,0.00,WUHU21623XXSP,2013-01-28 19:20:00,
2013-01-28 13:25:00,72.3,62.1,29.87,North,0,0.0,0.0,70,0.00,,,0.00,WUHU21623XXSP,2013-01-28 19:25:00,
2013-01-28 13:30:00,72.5,61.8,29.86,North,0,0.0,0.0,69,0.00,,,0.00,WUHU21623XXSP,2013-01-28 19:30:00,
2013-01-28 13:35:00,72.5,61.8,29.86,North,0,0.0,0.0,69,0.00,,,0.00,WUHU21623XXSP,2013-01-28 19:35:00,
2013-01-28 13:40:00,72.5,61.8,29.85,North,0,0.0,0.0,69,0.00,,,0.00,WUHU21623XXSP,2013-01-28 19:40:00,
2013-01-28 13:45:00,72.7,61.5,29.85,North,0,0.0,0.0,68,0.00,,,0.00,WUHU21623XXSP,2013-01-28 19:45:00,
2013-01-28 13:50:00,72.7,61.5,29.85,North,0,0.0,0.0,68,0.00,,,0.00,WUHU21623XXSP,2013-01-28 19:50:00,
2013-01-28 13:55:00,72.5,61.4,29.84,North,0,0.0,0.0,68,0.00,,,0.00,WUHU21623XXSP,2013-01-28 19:55:00,
2013-01-28 14:00:00,72.3,61.6,29.84,North,0,0.0,0.0,69,0.00,,,0.00,WUHU21623XXSP,2013-01-28 20:00:00,
2013-01-28 14:05:00,72.1,61.4,29.84,North,0,0.0,0.0,69,0.00,,,0.00,WUHU21623XXSP,2013-01-28 20:05:00,
2013-01-28 14:10:00,72.0,60.8,29.84,North,0,0.0,0.0,68,0.00,,,0.00,WUHU21623XXSP,2013-01-28 20:10:00,
2013-01-28 14:15:00,72.3,61.4,29.84,North,0,0.0,0.0,69,0.00,,,0.00,WUHU21623XXSP,2013-01-28 20:15:00,
2013-01-28 14:20:00,72.5,61.4,29.84,North,0,0.0,0.0,68,0.00,,,0.00,WUHU21623XXSP,2013-01-28 20:20:00,
2013-01-28 14:25:00,73.0,60.5,29.84,North,0,0.0,0.0,65,0.00,,,0.00,WUHU21623XXSP,2013-01-28 20:25:00,
2013-01-28 14:30:00,73.2,60.3,29.84,North,0,0.0,0.0,64,0.00,,,0.00,WUHU21623XXSP,2013-01-28 20:30:00,
2013-01-28 14:35:00,73.2,60.3,29.84,North,0,0.0,0.0,64,0.00,,,0.00,WUHU21623XXSP,2013-01-28 20:35:00,
2013-01-28 14:40:00,73.4,60.4,29.84,North,0,0.0,0.0,64,0.00,,,0.00,WUHU21623XXSP,2013-01-28 20:40:00,
2013-01-28 14:45:00,73.8,60.3,29.84,North,0,0.0,0.0,63,0.00,,,0.00,WUHU21623XXSP,2013-01-28 20:45:00,
2013-01-28 14:50:00,73.8,60.3,29.84,North,0,0.0,0.0,63,0.00,,,0.00,WUHU21623XXSP,2013-01-28 20:50:00,
2013-01-28 14:55:00,74.1,60.2,29.84,North,0,0.0,0.0,62,0.00,,,0.00,WUHU21623XXSP,2013-01-28 20:55:00,
2013-01-28 15:00:00,74.7,60.3,29.84,North,0,0.0,0.0,61,0.00,,,0.00,WUHU21623XXSP,2013-01-28 21:00:00,
2013-01-28 15:05:00,74.8,60.1,29.83,North,0,0.0,0.0,60,0.00,,,0.00,WUHU21623XXSP,2013-01-28 21:05:00,
2013-01-28 15:10:00,74.8,60.1,29.84,North,0,0.0,0.0,60,0.00,,,0.00,WUHU21623XXSP,2013-01-28 21:10:00,
2013-01-28 15:16:00,74.8,60.1,29.84,North,0,0.0,0.0,60,0.00,,,0.00,WUHU21623XXSP,2013-01-28 21:16:00,
2013-01-28 15:21:00,74.8,59.6,29.84,North,0,0.0,0.0,59,0.00,,,0.00,WUHU21623XXSP,2013-01-28 21:21:00,
2013-01-28 15:26:00,74.5,59.2,29.84,North,0,0.0,0.0,59,0.00,,,0.00,WUHU21623XXSP,2013-01-28 21:26:00,
2013-01-28 15:31:00,74.1,59.4,29.83,North,0,0.0,0.0,60,0.00,,,0.00,WUHU21623XXSP,2013-01-28 21:31:00,
2013-01-28 15:36:00,73.9,59.2,29.84,North,0,0.0,0.0,60,0.00,,,0.00,WUHU21623XXSP,2013-01-28 21:36:00,
2013-01-28 15:41:00,73.9,59.2,29.83,North,0,0.0,0.0,60,0.00,,,0.00,WUHU21623XXSP,2013-01-28 21:41:00,
2013-01-28 15:46:00,73.8,59.4,29.83,North,0,0.0,0.0,61,0.00,,,0.00,WUHU21623XXSP,2013-01-28 21:46:00,
2013-01-28 15:51:00,73.9,59.6,29.84,North,0,0.0,0.0,61,0.00,,,0.00,WUHU21623XXSP,2013-01-28 21:51:00,
2013-01-28 15:56:00,73.8,59.9,29.84,North,0,0.0,0.0,62,0.00,,,0.00,WUHU21623XXSP,2013-01-28 21:56:00,
2013-01-28 16:01:00,73.6,59.7,29.83,North,0,0.0,0.0,62,0.00,,,0.00,WUHU21623XXSP,2013-01-28 22:01:00,
2013-01-28 16:06:00,73.2,59.4,29.83,North,0,0.0,0.0,62,0.00,,,0.00,WUHU21623XXSP,2013-01-28 22:06:00,
2013-01-28 16:11:00,73.2,59.8,29.84,North,0,0.0,0.0,63,0.00,,,0.00,WUHU21623XXSP,2013-01-28 22:11:00,
2013-01-28 16:16:00,72.9,59.5,29.83,North,0,0.0,0.0,63,0.00,,,0.00,WUHU21623XXSP,2013-01-28 22:16:00,
2013-01-28 16:21:00,72.5,59.3,29.83,North,0,0.0,0.0,63,0.00,,,0.00,WUHU21623XXSP,2013-01-28 22:21:00,
2013-01-28 16:26:00,72.1,59.0,29.83,North,0,0.0,0.0,64,0.00,,,0.00,WUHU21623XXSP,2013-01-28 22:26:00,
2013-01-28 16:31:00,71.6,58.7,29.83,North,0,0.0,0.0,64,0.00,,,0.00,WUHU21623XXSP,2013-01-28 22:31:00,
2013-01-28 16:36:00,71.4,59.0,29.84,North,0,0.0,0.0,65,0.00,,,0.00,WUHU21623XXSP,2013-01-28 22:36:00,
2013-01-28 16:41:00,71.2,58.8,29.83,North,0,0.0,0.0,65,0.00,,,0.00,WUHU21623XXSP,2013-01-28 22:41:00,
2013-01-28 16:46:00,71.2,59.3,29.83,North,0,0.0,0.0,66,0.00,,,0.00,WUHU21623XXSP,2013-01-28 22:46:00,
2013-01-28 16:51:00,70.9,58.9,29.84,North,0,0.0,0.0,66,0.00,,,0.00,WUHU21623XXSP,2013-01-28 22:51:00,
2013-01-28 16:56:00,70.5,58.7,29.84,North,0,0.0,0.0,66,0.00,,,0.00,WUHU21623XXSP,2013-01-28 22:56:00,
2013-01-28 17:01:00,70.3,58.8,29.84,North,0,0.0,0.0,67,0.00,,,0.00,WUHU21623XXSP,2013-01-28 23:01:00,
2013-01-28 17:06:00,70.0,58.0,29.84,North,0,0.0,0.0,66,0.00,,,0.00,WUHU21623XXSP,2013-01-28 23:06:00,
2013-01-28 17:11:00,69.6,58.1,29.84,North,0,0.0,0.0,67,0.00,,,0.00,WUHU21623XXSP,2013-01-28 23:11:00,
2013-01-28 17:16:00,69.4,58.1,29.84,North,0,0.0,0.0,67,0.00,,,0.00,WUHU21623XXSP,2013-01-28 23:16:00,
2013-01-28 17:21:00,69.1,58.2,29.83,North,0,0.0,0.0,68,0.00,,,0.00,WUHU21623XXSP,2013-01-28 23:21:00,
2013-01-28 17:26:00,68.5,57.7,29.84,North,0,0.0,0.0,68,0.00,,,0.00,WUHU21623XXSP,2013-01-28 23:26:00,
2013-01-28 17:31:00,68.2,57.7,29.83,North,0,0.0,0.0,69,0.00,,,0.00,WUHU21623XXSP,2013-01-28 23:31:00,
2013-01-28 17:36:00,67.8,57.7,29.83,North,0,0.0,0.0,69,0.00,,,0.00,WUHU21623XXSP,2013-01-28 23:36:00,
2013-01-28 17:41:00,67.3,56.8,29.83,North,0,0.0,0.0,69,0.00,,,0.00,WUHU21623XXSP,2013-01-28 23:41:00,
2013-01-28 17:46:00,66.9,56.6,29.83,North,0,0.0,0.0,69,0.00,,,0.00,WUHU21623XXSP,2013-01-28 23:46:00,
2013-01-28 17:51:00,66.7,56.7,29.83,North,0,0.0,0.0,70,0.00,,,0.00,WUHU21623XXSP,2013-01-28 23:51:00,
2013-01-28 17:56:00,66.0,56.0,29.83,North,0,0.0,0.0,70,0.00,,,0.00,WUHU21623XXSP,2013-01-28 23:56:00,
2013-01-28 18:01:00,65.8,56.2,29.83,North,0,0.0,0.0,71,0.00,,,0.00,WUHU21623XXSP,2013-01-29 00:01:00,
2013-01-28 18:06:00,65.3,55.7,29.83,North,0,0.0,0.0,71,0.00,,,0.00,WUHU21623XXSP,2013-01-29 00:06:00,
2013-01-28 18:11:00,64.9,55.3,29.83,North,0,0.0,0.0,71,0.00,,,0.00,WUHU21623XXSP,2013-01-29 00:11:00,
2013-01-28 18:16:00,64.6,55.4,29.83,North,0,0.0,0.0,72,0.00,,,0.00,WUHU21623XXSP,2013-01-29 00:16:00,
2013-01-28 18:21:00,64.2,55.0,29.83,North,0,0.0,0.0,72,0.00,,,0.00,WUHU21623XXSP,2013-01-29 00:21:00,
2013-01-28 18:26:00,64.0,55.2,29.83,North,0,0.0,0.0,73,0.00,,,0.00,WUHU21623XXSP,2013-01-29 00:26:00,
2013-01-28 18:31:00,63.7,54.9,29.83,North,0,0.0,0.0,73,0.00,,,0.00,WUHU21623XXSP,2013-01-29 00:31:00,
2013-01-28 18:36:00,63.7,55.2,29.83,North,0,0.0,0.0,74,0.00,,,0.00,WUHU21623XXSP,2013-01-29 00:36:00,
2013-01-28 18:41:00,63.3,54.9,29.83,North,0,0.0,0.0,74,0.00,,,0.00,WUHU21623XXSP,2013-01-29 00:41:00,
2013-01-28 18:46:00,63.1,54.7,29.84,North,0,0.0,0.0,74,0.00,,,0.00,WUHU21623XXSP,2013-01-29 00:46:00,
2013-01-28 18:51:00,63.1,55.0,29.83,North,0,0.0,0.0,75,0.00,,,0.00,WUHU21623XXSP,2013-01-29 00:51:00,
2013-01-28 18:56:00,62.8,54.7,29.83,North,0,0.0,0.0,75,0.00,,,0.00,WUHU21623XXSP,2013-01-29 00:56:00,
2013-01-28 19:01:00,62.8,54.7,29.83,North,0,0.0,0.0,75,0.00,,,0.00,WUHU21623XXSP,2013-01-29 01:01:00,
2013-01-28 19:06:00,62.8,54.7,29.83,North,0,0.0,0.0,75,0.00,,,0.00,WUHU21623XXSP,2013-01-29 01:06:00,
2013-01-28 19:11:00,62.6,54.9,29.83,North,0,0.0,0.0,76,0.00,,,0.00,WUHU21623XXSP,2013-01-29 01:11:00,
2013-01-28 19:16:00,62.6,54.9,29.83,North,0,0.0,0.0,76,0.00,,,0.00,WUHU21623XXSP,2013-01-29 01:16:00,
2013-01-28 19:21:00,62.6,54.9,29.83,North,0,0.0,0.0,76,0.00,,,0.00,WUHU21623XXSP,2013-01-29 01:21:00,
2013-01-28 19:26:00,62.6,55.2,29.83,North,0,0.0,0.0,77,0.00,,,0.00,WUHU21623XXSP,2013-01-29 01:26:00,
2013-01-28 19:31:00,62.8,55.4,29.83,North,0,0.0,0.0,77,0.00,,,0.00,WUHU21623XXSP,2013-01-29 01:31:00,
2013-01-28 19:36:00,62.8,55.4,29.82,North,0,0.0,0.0,77,0.00,,,0.00,WUHU21623XXSP,2013-01-29 01:36:00,
2013-01-28 19:41:00,62.8,55.4,29.83,North,0,0.0,0.0,77,0.00,,,0.00,WUHU21623XXSP,2013-01-29 01:41:00,
2013-01-28 19:46:00,63.0,55.6,29.82,North,0,0.0,0.0,77,0.00,,,0.00,WUHU21623XXSP,2013-01-29 01:46:00,
2013-01-28 19:51:00,63.0,55.0,29.82,North,0,0.0,0.0,76,0.00,,,0.00,WUHU21623XXSP,2013-01-29 01:51:00,
2013-01-28 19:56:00,62.8,55.0,29.82,North,0,0.0,0.0,76,0.00,,,0.00,WUHU21623XXSP,2013-01-29 01:56:00,
2013-01-28 20:01:00,62.8,55.0,29.82,North,0,0.0,0.0,76,0.00,,,0.00,WUHU21623XXSP,2013-01-29 02:01:00,
2013-01-28 20:06:00,62.8,55.0,29.82,North,0,0.0,0.0,76,0.00,,,0.00,WUHU21623XXSP,2013-01-29 02:06:00,
2013-01-28 20:11:00,62.8,55.0,29.82,North,0,0.0,0.0,76,0.00,,,0.00,WUHU21623XXSP,2013-01-29 02:11:00,
2013-01-28 20:16:00,62.8,55.4,29.82,North,0,0.0,0.0,77,0.00,,,0.00,WUHU21623XXSP,2013-01-29 02:16:00,
2013-01-28 20:21:00,62.8,55.4,29.82,North,0,0.0,0.0,77,0.00,,,0.00,WUHU21623XXSP,2013-01-29 02:21:00,
2013-01-28 20:26:00,62.8,55.4,29.81,North,0,0.0,0.0,77,0.00,,,0.00,WUHU21623XXSP,2013-01-29 02:26:00,
2013-01-28 20:31:00,63.0,55.6,29.81,North,0,0.0,0.0,77,0.00,,,0.00,WUHU21623XXSP,2013-01-29 02:31:00,
2013-01-28 20:36:00,63.1,55.8,29.81,North,0,0.0,0.0,77,0.00,,,0.00,WUHU21623XXSP,2013-01-29 02:36:00,
2013-01-28 20:41:00,63.3,55.6,29.81,North,0,0.0,0.0,76,0.00,,,0.00,WUHU21623XXSP,2013-01-29 02:41:00,
2013-01-28 20:46:00,63.5,55.8,29.81,North,0,0.0,0.0,76,0.00,,,0.00,WUHU21623XXSP,2013-01-29 02:46:00,
2013-01-28 20:51:00,63.7,55.9,29.81,North,0,0.0,0.0,76,0.00,,,0.00,WUHU21623XXSP,2013-01-29 02:51:00,
2013-01-28 20:56:00,63.7,55.9,29.81,North,0,0.0,0.0,76,0.00,,,0.00,WUHU21623XXSP,2013-01-29 02:56:00,
2013-01-28 21:01:00,63.7,55.9,29.81,North,0,0.0,0.0,76,0.00,,,0.00,WUHU21623XXSP,2013-01-29 03:01:00,
2013-01-28 21:06:00,63.7,55.9,29.81,North,0,0.0,0.0,76,0.00,,,0.00,WUHU21623XXSP,2013-01-29 03:06:00,
2013-01-28 21:11:00,63.7,55.9,29.81,North,0,0.0,0.0,76,0.00,,,0.00,WUHU21623XXSP,2013-01-29 03:11:00,
2013-01-28 21:16:00,63.7,55.9,29.81,North,0,0.0,0.0,76,0.00,,,0.00,WUHU21623XXSP,2013-01-29 03:16:00,
2013-01-28 21:21:00,63.7,55.9,29.81,North,0,0.0,0.0,76,0.00,,,0.00,WUHU21623XXSP,2013-01-29 03:21:00,
2013-01-28 21:26:00,63.7,55.9,29.81,North,0,0.0,0.0,76,0.00,,,0.00,WUHU21623XXSP,2013-01-29 03:26:00,
2013-01-28 21:31:00,63.7,55.9,29.80,North,0,0.0,0.0,76,0.00,,,0.00,WUHU21623XXSP,2013-01-29 03:31:00,
2013-01-28 21:36:00,63.9,56.1,29.80,North,0,0.0,0.0,76,0.00,,,0.00,WUHU21623XXSP,2013-01-29 03:36:00,
2013-01-28 21:41:00,63.7,55.9,29.80,North,0,0.0,0.0,76,0.00,,,0.00,WUHU21623XXSP,2013-01-29 03:41:00,
2013-01-28 21:46:00,63.7,55.9,29.80,North,0,0.0,0.0,76,0.00,,,0.00,WUHU21623XXSP,2013-01-29 03:46:00,
2013-01-28 21:51:00,63.7,55.9,29.80,North,0,0.0,0.0,76,0.00,,,0.00,WUHU21623XXSP,2013-01-29 03:51:00,
2013-01-28 21:56:00,63.7,55.9,29.80,North,0,0.0,0.0,76,0.00,,,0.00,WUHU21623XXSP,2013-01-29 03:56:00,
2013-01-28 22:01:00,63.5,55.9,29.80,North,0,0.0,0.0,76,0.00,,,0.00,WUHU21623XXSP,2013-01-29 04:01:00,
2013-01-28 22:06:00,63.5,55.8,29.80,North,0,0.0,0.0,76,0.00,,,0.00,WUHU21623XXSP,2013-01-29 04:06:00,
2013-01-28 22:11:00,63.3,55.6,29.80,North,0,0.0,0.0,77,0.00,,,0.00,WUHU21623XXSP,2013-01-29 04:11:00,
2013-01-28 22:16:00,63.3,55.9,29.80,North,0,0.0,0.0,77,0.00,,,0.00,WUHU21623XXSP,2013-01-29 04:16:00,
2013-01-28 22:21:00,63.1,55.8,29.79,North,0,0.0,0.0,77,0.00,,,0.00,WUHU21623XXSP,2013-01-29 04:21:00,
2013-01-28 22:26:00,63.1,56.1,29.80,North,0,0.0,0.0,78,0.00,,,0.00,WUHU21623XXSP,2013-01-29 04:26:00,
2013-01-28 22:31:00,63.1,56.1,29.79,North,0,0.0,0.0,78,0.00,,,0.00,WUHU21623XXSP,2013-01-29 04:31:00,
2013-01-28 22:36:00,63.1,56.1,29.80,North,0,0.0,0.0,78,0.00,,,0.00,WUHU21623XXSP,2013-01-29 04:36:00,
2013-01-28 22:41:00,63.0,56.1,29.80,North,0,0.0,0.0,78,0.00,,,0.00,WUHU21623XXSP,2013-01-29 04:41:00,
2013-01-28 22:46:00,63.0,55.9,29.80,North,0,0.0,0.0,78,0.00,,,0.00,WUHU21623XXSP,2013-01-29 04:46:00,
2013-01-28 22:51:00,63.0,56.3,29.80,North,0,0.0,0.0,79,0.00,,,0.00,WUHU21623XXSP,2013-01-29 04:51:00,
2013-01-28 22:56:00,63.0,56.3,29.80,North,0,0.0,0.0,79,0.00,,,0.00,WUHU21623XXSP,2013-01-29 04:56:00,
2013-01-28 23:02:00,63.0,56.3,29.80,North,0,0.0,0.0,79,0.00,,,0.00,WUHU21623XXSP,2013-01-29 05:02:00,
2013-01-28 23:04:00,63.0,56.3,29.81,North,0,0.0,0.0,79,0.00,,,0.00,WUHU21623XXSP,2013-01-29 05:04:00,
2013-01-28 23:07:00,63.0,56.3,29.81,North,0,0.0,0.0,79,0.00,,,0.00,WUHU21623XXSP,2013-01-29 05:07:00,
2013-01-28 23:12:00,63.0,56.3,29.81,North,0,0.0,0.0,79,0.00,,,0.00,WUHU21623XXSP,2013-01-29 05:12:00,
2013-01-28 23:17:00,62.8,56.7,29.81,North,0,0.0,0.0,80,0.00,,,0.00,WUHU21623XXSP,2013-01-29 05:17:00,
2013-01-28 23:22:00,63.0,56.7,29.81,North,0,0.0,0.0,80,0.00,,,0.00,WUHU21623XXSP,2013-01-29 05:22:00,
2013-01-28 23:27:00,62.8,56.5,29.81,North,0,0.0,0.0,80,0.00,,,0.00,WUHU21623XXSP,2013-01-29 05:27:00,
2013-01-28 23:32:00,62.8,56.5,29.81,North,0,0.0,0.0,80,0.00,,,0.00,WUHU21623XXSP,2013-01-29 05:32:00,
2013-01-28 23:37:00,62.8,56.5,29.80,North,0,0.0,0.0,80,0.00,,,0.00,WUHU21623XXSP,2013-01-29 05:37:00,
2013-01-28 23:42:00,62.8,56.8,29.80,North,0,0.0,0.0,81,0.00,,,0.00,WUHU21623XXSP,2013-01-29 05:42:00,
2013-01-28 23:47:00,62.8,56.8,29.80,North,0,0.0,0.0,81,0.00,,,0.00,WUHU21623XXSP,2013-01-29 05:47:00,
2013-01-28 23:52:00,62.6,56.6,29.80,North,0,0.0,0.0,81,0.00,,,0.00,WUHU21623XXSP,2013-01-29 05:52:00,
2013-01-28 23:57:00,62.6,56.6,29.80,North,0,0.0,0.0,81,0.00,,,0.00,WUHU21623XXSP,2013-01-29 05:57:00,